sensor_id;sensor_type;location;lat;lon;timestamp;pressure;altitude;pressure_sealevel;temperature
76901;BMP280;65859;43.020;25.096;2023-11-19T00:02:10;99097.75;;;5.21
76901;BMP280;65859;43.020;25.096;2023-11-19T00:04:55;99108.56;;;5.20
76901;BMP280;65859;43.020;25.096;2023-11-19T00:07:40;99114.53;;;5.26
76901;BMP280;65859;43.020;25.096;2023-11-19T00:10:29;99110.66;;;5.18
76901;BMP280;65859;43.020;25.096;2023-11-19T00:13:15;99105.19;;;5.14
76901;BMP280;65859;43.020;25.096;2023-11-19T00:16:01;99114.06;;;5.18
76901;BMP280;65859;43.020;25.096;2023-11-19T00:18:46;99126.44;;;5.18
76901;BMP280;65859;43.020;25.096;2023-11-19T00:21:31;99126.75;;;5.16
76901;BMP280;65859;43.020;25.096;2023-11-19T00:24:18;99114.06;;;5.18
76901;BMP280;65859;43.020;25.096;2023-11-19T00:27:03;99114.81;;;5.24
76901;BMP280;65859;43.020;25.096;2023-11-19T00:29:48;99111.19;;;5.20
76901;BMP280;65859;43.020;25.096;2023-11-19T00:32:33;99116.94;;;5.22
76901;BMP280;65859;43.020;25.096;2023-11-19T00:35:18;99111.66;;;5.22
76901;BMP280;65859;43.020;25.096;2023-11-19T00:38:03;99117.94;;;5.26
76901;BMP280;65859;43.020;25.096;2023-11-19T00:40:50;99122.81;;;5.33
76901;BMP280;65859;43.020;25.096;2023-11-19T00:43:35;99126.81;;;5.30
76901;BMP280;65859;43.020;25.096;2023-11-19T00:46:20;99117.00;;;5.36
76901;BMP280;65859;43.020;25.096;2023-11-19T00:49:04;99122.63;;;5.29
76901;BMP280;65859;43.020;25.096;2023-11-19T00:51:49;99120.47;;;5.31
76901;BMP280;65859;43.020;25.096;2023-11-19T00:54:33;99077.34;;;5.13
76901;BMP280;65859;43.020;25.096;2023-11-19T00:57:18;99105.41;;;5.18
76901;BMP280;65859;43.020;25.096;2023-11-19T01:00:04;99126.22;;;5.33
76901;BMP280;65859;43.020;25.096;2023-11-19T01:03:05;99126.97;;;5.39
76901;BMP280;65859;43.020;25.096;2023-11-19T01:05:51;99139.97;;;5.30
76901;BMP280;65859;43.020;25.096;2023-11-19T01:08:37;99130.72;;;5.33
76901;BMP280;65859;43.020;25.096;2023-11-19T01:11:24;99133.06;;;5.34
76901;BMP280;65859;43.020;25.096;2023-11-19T01:14:09;99122.81;;;5.33
76901;BMP280;65859;43.020;25.096;2023-11-19T01:16:53;99120.97;;;5.33
76901;BMP280;65859;43.020;25.096;2023-11-19T01:19:38;99118.84;;;5.35
76901;BMP280;65859;43.020;25.096;2023-11-19T01:22:23;99140.59;;;5.41
76901;BMP280;65859;43.020;25.096;2023-11-19T01:25:08;99144.81;;;5.42
76901;BMP280;65859;43.020;25.096;2023-11-19T01:27:52;99137.47;;;5.39
76901;BMP280;65859;43.020;25.096;2023-11-19T01:30:37;99146.94;;;5.40
76901;BMP280;65859;43.020;25.096;2023-11-19T01:33:22;99150.56;;;5.44
76901;BMP280;65859;43.020;25.096;2023-11-19T01:36:06;99162.44;;;5.41
76901;BMP280;65859;43.020;25.096;2023-11-19T01:38:52;99149.28;;;5.41
76901;BMP280;65859;43.020;25.096;2023-11-19T01:41:38;99146.66;;;5.41
76901;BMP280;65859;43.020;25.096;2023-11-19T01:44:23;99140.81;;;5.44
76901;BMP280;65859;43.020;25.096;2023-11-19T01:47:08;99139.00;;;5.45
76901;BMP280;65859;43.020;25.096;2023-11-19T01:49:54;99144.50;;;5.43
76901;BMP280;65859;43.020;25.096;2023-11-19T01:52:39;99145.06;;;5.40
76901;BMP280;65859;43.020;25.096;2023-11-19T01:55:25;99149.78;;;5.43
76901;BMP280;65859;43.020;25.096;2023-11-19T01:58:12;99146.44;;;5.38
76901;BMP280;65859;43.020;25.096;2023-11-19T02:00:58;99136.34;;;5.45
76901;BMP280;65859;43.020;25.096;2023-11-19T02:03:43;99147.22;;;5.38
76901;BMP280;65859;43.020;25.096;2023-11-19T02:06:28;99157.06;;;5.46
76901;BMP280;65859;43.020;25.096;2023-11-19T02:09:13;99157.97;;;5.42
76901;BMP280;65859;43.020;25.096;2023-11-19T02:11:59;99146.66;;;5.41
76901;BMP280;65859;43.020;25.096;2023-11-19T02:14:44;99145.06;;;5.40
76901;BMP280;65859;43.020;25.096;2023-11-19T02:17:32;99141.97;;;5.38
76901;BMP280;65859;43.020;25.096;2023-11-19T02:20:19;99148.00;;;5.39
76901;BMP280;65859;43.020;25.096;2023-11-19T02:23:04;99136.97;;;5.37
76901;BMP280;65859;43.020;25.096;2023-11-19T02:26:02;99146.44;;;5.38
76901;BMP280;65859;43.020;25.096;2023-11-19T02:28:47;99134.56;;;5.40
76901;BMP280;65859;43.020;25.096;2023-11-19T02:31:32;99140.41;;;5.37
76901;BMP280;65859;43.020;25.096;2023-11-19T02:34:17;99143.50;;;5.39
76901;BMP280;65859;43.020;25.096;2023-11-19T02:37:02;99139.88;;;5.35
76901;BMP280;65859;43.020;25.096;2023-11-19T02:39:47;99146.22;;;5.34
76901;BMP280;65859;43.020;25.096;2023-11-19T02:42:33;99146.22;;;5.34
76901;BMP280;65859;43.020;25.096;2023-11-19T02:45:18;99143.59;;;5.34
76901;BMP280;65859;43.020;25.096;2023-11-19T02:48:03;99140.97;;;5.34
76901;BMP280;65859;43.020;25.096;2023-11-19T02:50:51;99138.59;;;5.33
76901;BMP280;65859;43.020;25.096;2023-11-19T02:53:37;99128.84;;;5.33
76901;BMP280;65859;43.020;25.096;2023-11-19T02:56:22;99145.16;;;5.35
76901;BMP280;65859;43.020;25.096;2023-11-19T02:59:13;99149.69;;;5.30
76901;BMP280;65859;43.020;25.096;2023-11-19T03:02:11;99149.41;;;5.31
76901;BMP280;65859;43.020;25.096;2023-11-19T03:04:57;99147.56;;;5.32
76901;BMP280;65859;43.020;25.096;2023-11-19T03:07:44;99146.22;;;5.34
76901;BMP280;65859;43.020;25.096;2023-11-19T03:10:29;99143.84;;;5.33
76901;BMP280;65859;43.020;25.096;2023-11-19T03:13:15;99146.78;;;5.31
76901;BMP280;65859;43.020;25.096;2023-11-19T03:16:02;99144.63;;;5.33
76901;BMP280;65859;43.020;25.096;2023-11-19T03:18:47;99138.13;;;5.31
76901;BMP280;65859;43.020;25.096;2023-11-19T03:21:32;99141.53;;;5.31
76901;BMP280;65859;43.020;25.096;2023-11-19T03:24:17;99157.31;;;5.31
76901;BMP280;65859;43.020;25.096;2023-11-19T03:27:02;99170.16;;;5.33
76901;BMP280;65859;43.020;25.096;2023-11-19T03:29:48;99175.38;;;5.38
76901;BMP280;65859;43.020;25.096;2023-11-19T03:32:33;99174.88;;;5.36
76901;BMP280;65859;43.020;25.096;2023-11-19T03:35:20;99171.47;;;5.35
76901;BMP280;65859;43.020;25.096;2023-11-19T03:38:05;99171.75;;;5.34
76901;BMP280;65859;43.020;25.096;2023-11-19T03:40:49;99169.34;;;5.37
76901;BMP280;65859;43.020;25.096;2023-11-19T03:43:35;99182.50;;;5.37
76901;BMP280;65859;43.020;25.096;2023-11-19T03:46:21;99186.94;;;5.37
76901;BMP280;65859;43.020;25.096;2023-11-19T03:49:06;99189.56;;;5.37
76901;BMP280;65859;43.020;25.096;2023-11-19T03:51:51;99196.69;;;5.36
76901;BMP280;65859;43.020;25.096;2023-11-19T03:54:36;99205.13;;;5.33
76901;BMP280;65859;43.020;25.096;2023-11-19T03:57:21;99205.66;;;5.35
76901;BMP280;65859;43.020;25.096;2023-11-19T04:00:06;99198.28;;;5.37
76901;BMP280;65859;43.020;25.096;2023-11-19T04:02:54;99204.09;;;5.34
76901;BMP280;65859;43.020;25.096;2023-11-19T04:05:40;99210.41;;;5.33
76901;BMP280;65859;43.020;25.096;2023-11-19T04:08:24;99205.38;;;5.37
76901;BMP280;65859;43.020;25.096;2023-11-19T04:11:10;99223.56;;;5.33
76901;BMP280;65859;43.020;25.096;2023-11-19T04:13:56;99226.19;;;5.33
76901;BMP280;65859;43.020;25.096;2023-11-19T04:16:41;99219.66;;;5.31
76901;BMP280;65859;43.020;25.096;2023-11-19T04:19:26;99218.38;;;5.28
76901;BMP280;65859;43.020;25.096;2023-11-19T04:22:10;99230.41;;;5.34
76901;BMP280;65859;43.020;25.096;2023-11-19T04:24:55;99240.91;;;5.34
76901;BMP280;65859;43.020;25.096;2023-11-19T04:27:40;99247.50;;;5.32
76901;BMP280;65859;43.020;25.096;2023-11-19T04:30:25;99239.91;;;5.30
76901;BMP280;65859;43.020;25.096;2023-11-19T04:33:10;99257.75;;;5.33
76901;BMP280;65859;43.020;25.096;2023-11-19T04:35:54;99253.06;;;5.30
76901;BMP280;65859;43.020;25.096;2023-11-19T04:38:38;99252.88;;;5.27
76901;BMP280;65859;43.020;25.096;2023-11-19T04:41:23;99252.34;;;5.24
76901;BMP280;65859;43.020;25.096;2023-11-19T04:44:09;99266.59;;;5.18
76901;BMP280;65859;43.020;25.096;2023-11-19T04:46:54;99268.69;;;5.21
76901;BMP280;65859;43.020;25.096;2023-11-19T04:49:42;99270.75;;;5.24
76901;BMP280;65859;43.020;25.096;2023-11-19T04:52:27;99260.53;;;5.23
76901;BMP280;65859;43.020;25.096;2023-11-19T04:55:13;99243.59;;;5.10
76901;BMP280;65859;43.020;25.096;2023-11-19T04:57:58;99236.66;;;5.14
76901;BMP280;65859;43.020;25.096;2023-11-19T05:00:43;99266.47;;;5.10
76901;BMP280;65859;43.020;25.096;2023-11-19T05:03:27;99298.75;;;5.15
76901;BMP280;65859;43.020;25.096;2023-11-19T05:06:12;99300.03;;;5.18
76901;BMP280;65859;43.020;25.096;2023-11-19T05:08:58;99308.47;;;5.15
76901;BMP280;65859;43.020;25.096;2023-11-19T05:11:43;99293.44;;;5.20
76901;BMP280;65859;43.020;25.096;2023-11-19T05:14:29;99293.50;;;5.15
76901;BMP280;65859;43.020;25.096;2023-11-19T05:17:14;99300.94;;;5.08
76901;BMP280;65859;43.020;25.096;2023-11-19T05:19:58;99310.31;;;5.14
76901;BMP280;65859;43.020;25.096;2023-11-19T05:22:43;99299.09;;;5.09
76901;BMP280;65859;43.020;25.096;2023-11-19T05:25:28;99312.44;;;5.12
76901;BMP280;65859;43.020;25.096;2023-11-19T05:28:12;99314.00;;;5.13
76901;BMP280;65859;43.020;25.096;2023-11-19T05:30:59;99322.47;;;5.10
76901;BMP280;65859;43.020;25.096;2023-11-19T05:33:44;99321.28;;;4.97
76901;BMP280;65859;43.020;25.096;2023-11-19T05:36:29;99310.94;;;5.06
76901;BMP280;65859;43.020;25.096;2023-11-19T05:39:14;99304.38;;;5.04
76901;BMP280;65859;43.020;25.096;2023-11-19T05:41:58;99281.22;;;5.06
76901;BMP280;65859;43.020;25.096;2023-11-19T05:44:45;99287.22;;;5.11
76901;BMP280;65859;43.020;25.096;2023-11-19T05:47:30;99320.63;;;5.11
76901;BMP280;65859;43.020;25.096;2023-11-19T05:50:15;99299.00;;;5.14
76901;BMP280;65859;43.020;25.096;2023-11-19T05:53:00;99293.66;;;5.24
76901;BMP280;65859;43.020;25.096;2023-11-19T05:55:46;99300.84;;;5.13
76901;BMP280;65859;43.020;25.096;2023-11-19T05:58:38;99310.53;;;5.18
76901;BMP280;65859;43.020;25.096;2023-11-19T06:01:25;99313.91;;;5.23
76901;BMP280;65859;43.020;25.096;2023-11-19T06:04:09;99312.00;;;5.29
76901;BMP280;65859;43.020;25.096;2023-11-19T06:06:54;99304.31;;;5.33
76901;BMP280;65859;43.020;25.096;2023-11-19T06:09:39;99298.38;;;5.27
76901;BMP280;65859;43.020;25.096;2023-11-19T06:12:24;99297.44;;;5.37
76901;BMP280;65859;43.020;25.096;2023-11-19T06:15:10;99313.00;;;5.33
76901;BMP280;65859;43.020;25.096;2023-11-19T06:17:55;99311.66;;;5.36
76901;BMP280;65859;43.020;25.096;2023-11-19T06:20:43;99330.25;;;5.44
76901;BMP280;65859;43.020;25.096;2023-11-19T06:23:27;99327.22;;;5.56
76901;BMP280;65859;43.020;25.096;2023-11-19T06:26:12;99326.81;;;5.44
76901;BMP280;65859;43.020;25.096;2023-11-19T06:28:58;99323.22;;;5.59
76901;BMP280;65859;43.020;25.096;2023-11-19T06:31:42;99321.66;;;5.58
76901;BMP280;65859;43.020;25.096;2023-11-19T06:34:27;99325.13;;;5.53
76901;BMP280;65859;43.020;25.096;2023-11-19T06:37:12;99328.84;;;5.52
76901;BMP280;65859;43.020;25.096;2023-11-19T06:39:57;99339.06;;;5.54
76901;BMP280;65859;43.020;25.096;2023-11-19T06:42:42;99345.25;;;5.44
76901;BMP280;65859;43.020;25.096;2023-11-19T06:45:29;99348.38;;;5.46
76901;BMP280;65859;43.020;25.096;2023-11-19T06:48:14;99333.88;;;5.48
76901;BMP280;65859;43.020;25.096;2023-11-19T06:51:00;99336.97;;;5.56
76901;BMP280;65859;43.020;25.096;2023-11-19T06:53:45;99332.91;;;5.63
76901;BMP280;65859;43.020;25.096;2023-11-19T06:56:30;99327.56;;;5.68
76901;BMP280;65859;43.020;25.096;2023-11-19T06:59:15;99336.81;;;5.66
76901;BMP280;65859;43.020;25.096;2023-11-19T07:02:00;99329.66;;;5.71
76901;BMP280;65859;43.020;25.096;2023-11-19T07:04:45;99343.03;;;5.75
76901;BMP280;65859;43.020;25.096;2023-11-19T07:07:30;99337.47;;;5.77
76901;BMP280;65859;43.020;25.096;2023-11-19T07:10:15;99345.09;;;5.78
76901;BMP280;65859;43.020;25.096;2023-11-19T07:13:00;99355.41;;;5.74
76901;BMP280;65859;43.020;25.096;2023-11-19T07:15:46;99348.00;;;5.77
76901;BMP280;65859;43.020;25.096;2023-11-19T07:18:31;99361.94;;;5.96
76901;BMP280;65859;43.020;25.096;2023-11-19T07:21:16;99355.06;;;6.19
76901;BMP280;65859;43.020;25.096;2023-11-19T07:24:02;99375.19;;;6.10
76901;BMP280;65859;43.020;25.096;2023-11-19T07:26:48;99372.78;;;6.13
76901;BMP280;65859;43.020;25.096;2023-11-19T07:29:33;99381.53;;;6.09
76901;BMP280;65859;43.020;25.096;2023-11-19T07:32:18;99378.59;;;6.10
76901;BMP280;65859;43.020;25.096;2023-11-19T07:35:02;99387.38;;;6.06
76901;BMP280;65859;43.020;25.096;2023-11-19T07:37:49;99367.09;;;6.06
76901;BMP280;65859;43.020;25.096;2023-11-19T07:40:34;99401.06;;;6.26
76901;BMP280;65859;43.020;25.096;2023-11-19T07:43:19;99410.53;;;6.27
76901;BMP280;65859;43.020;25.096;2023-11-19T07:46:09;99404.31;;;6.37
76901;BMP280;65859;43.020;25.096;2023-11-19T07:48:54;99393.88;;;6.65
76901;BMP280;65859;43.020;25.096;2023-11-19T07:51:39;99405.34;;;6.74
76901;BMP280;65859;43.020;25.096;2023-11-19T07:54:23;99401.78;;;6.97
76901;BMP280;65859;43.020;25.096;2023-11-19T07:57:08;99401.22;;;7.14
76901;BMP280;65859;43.020;25.096;2023-11-19T07:59:53;99413.94;;;7.26
76901;BMP280;65859;43.020;25.096;2023-11-19T08:02:39;99411.59;;;7.11
76901;BMP280;65859;43.020;25.096;2023-11-19T08:05:24;99387.72;;;7.16
76901;BMP280;65859;43.020;25.096;2023-11-19T08:08:11;99402.75;;;7.01
76901;BMP280;65859;43.020;25.096;2023-11-19T08:10:57;99411.06;;;6.95
76901;BMP280;65859;43.020;25.096;2023-11-19T08:13:42;99418.22;;;7.08
76901;BMP280;65859;43.020;25.096;2023-11-19T08:16:28;99417.97;;;7.23
76901;BMP280;65859;43.020;25.096;2023-11-19T08:19:13;99420.75;;;6.99
76901;BMP280;65859;43.020;25.096;2023-11-19T08:21:57;99421.94;;;7.07
76901;BMP280;65859;43.020;25.096;2023-11-19T08:24:43;99424.50;;;7.12
76901;BMP280;65859;43.020;25.096;2023-11-19T08:27:27;99424.06;;;7.05
76901;BMP280;65859;43.020;25.096;2023-11-19T08:30:12;99406.78;;;7.13
76901;BMP280;65859;43.020;25.096;2023-11-19T08:32:57;99417.16;;;7.37
76901;BMP280;65859;43.020;25.096;2023-11-19T08:35:44;99422.75;;;7.35
76901;BMP280;65859;43.020;25.096;2023-11-19T08:38:30;99403.94;;;7.50
76901;BMP280;65859;43.020;25.096;2023-11-19T08:41:15;99429.97;;;7.84
76901;BMP280;65859;43.020;25.096;2023-11-19T08:44:02;99430.47;;;8.09
76901;BMP280;65859;43.020;25.096;2023-11-19T08:46:51;99420.59;;;8.82
76901;BMP280;65859;43.020;25.096;2023-11-19T08:49:36;99429.78;;;9.15
76901;BMP280;65859;43.020;25.096;2023-11-19T08:52:20;99414.88;;;9.28
76901;BMP280;65859;43.020;25.096;2023-11-19T08:55:06;99420.94;;;9.20
76901;BMP280;65859;43.020;25.096;2023-11-19T08:57:50;99415.19;;;9.27
76901;BMP280;65859;43.020;25.096;2023-11-19T09:00:35;99415.16;;;10.44
76901;BMP280;65859;43.020;25.096;2023-11-19T09:03:20;99423.81;;;11.47
76901;BMP280;65859;43.020;25.096;2023-11-19T09:06:05;99433.53;;;13.09
76901;BMP280;65859;43.020;25.096;2023-11-19T09:08:50;99440.50;;;13.01
76901;BMP280;65859;43.020;25.096;2023-11-19T09:11:35;99436.84;;;13.42
76901;BMP280;65859;43.020;25.096;2023-11-19T09:14:21;99421.72;;;13.34
76901;BMP280;65859;43.020;25.096;2023-11-19T09:17:12;99426.31;;;12.72
76901;BMP280;65859;43.020;25.096;2023-11-19T09:19:57;99433.75;;;11.80
76901;BMP280;65859;43.020;25.096;2023-11-19T09:22:42;99431.91;;;11.51
76901;BMP280;65859;43.020;25.096;2023-11-19T09:25:27;99428.06;;;12.23
76901;BMP280;65859;43.020;25.096;2023-11-19T09:28:11;99374.00;;;10.21
76901;BMP280;65859;43.020;25.096;2023-11-19T09:30:58;99386.97;;;10.78
76901;BMP280;65859;43.020;25.096;2023-11-19T09:33:44;99367.19;;;9.11
76901;BMP280;65859;43.020;25.096;2023-11-19T09:36:30;99353.16;;;9.10
76901;BMP280;65859;43.020;25.096;2023-11-19T09:39:14;99416.25;;;10.35
76901;BMP280;65859;43.020;25.096;2023-11-19T09:41:59;99391.31;;;10.10
76901;BMP280;65859;43.020;25.096;2023-11-19T09:44:45;99379.63;;;10.66
76901;BMP280;65859;43.020;25.096;2023-11-19T09:47:33;99340.72;;;10.41
76901;BMP280;65859;43.020;25.096;2023-11-19T09:50:19;99417.88;;;12.83
76901;BMP280;65859;43.020;25.096;2023-11-19T09:53:03;99393.50;;;15.12
76901;BMP280;65859;43.020;25.096;2023-11-19T09:55:49;99400.63;;;14.25
76901;BMP280;65859;43.020;25.096;2023-11-19T09:58:35;99339.53;;;12.96
76901;BMP280;65859;43.020;25.096;2023-11-19T10:01:20;99334.03;;;13.29
76901;BMP280;65859;43.020;25.096;2023-11-19T10:04:06;99385.66;;;15.77
76901;BMP280;65859;43.020;25.096;2023-11-19T10:06:52;99362.16;;;14.42
76901;BMP280;65859;43.020;25.096;2023-11-19T10:09:36;99354.34;;;15.39
76901;BMP280;65859;43.020;25.096;2023-11-19T10:12:21;99411.53;;;17.14
76901;BMP280;65859;43.020;25.096;2023-11-19T10:15:07;99409.19;;;20.54
76901;BMP280;65859;43.020;25.096;2023-11-19T10:17:57;99409.38;;;16.96
76901;BMP280;65859;43.020;25.096;2023-11-19T10:20:42;99382.09;;;15.50
76901;BMP280;65859;43.020;25.096;2023-11-19T10:23:28;99411.41;;;19.31
76901;BMP280;65859;43.020;25.096;2023-11-19T10:26:13;99349.72;;;16.73
76901;BMP280;65859;43.020;25.096;2023-11-19T10:28:57;99350.16;;;18.93
76901;BMP280;65859;43.020;25.096;2023-11-19T10:31:56;99335.34;;;15.05
76901;BMP280;65859;43.020;25.096;2023-11-19T10:34:41;99343.19;;;12.30
76901;BMP280;65859;43.020;25.096;2023-11-19T10:37:28;99419.16;;;19.50
76901;BMP280;65859;43.020;25.096;2023-11-19T10:40:17;99414.94;;;20.67
76901;BMP280;65859;43.020;25.096;2023-11-19T10:43:03;99333.53;;;13.95
76901;BMP280;65859;43.020;25.096;2023-11-19T10:45:48;99332.34;;;13.37
76901;BMP280;65859;43.020;25.096;2023-11-19T10:48:34;99330.56;;;10.90
76901;BMP280;65859;43.020;25.096;2023-11-19T10:51:20;99408.75;;;19.45
76901;BMP280;65859;43.020;25.096;2023-11-19T10:54:06;99337.28;;;19.84
76901;BMP280;65859;43.020;25.096;2023-11-19T10:56:58;99388.22;;;14.17
76901;BMP280;65859;43.020;25.096;2023-11-19T10:59:44;99349.72;;;10.95
76901;BMP280;65859;43.020;25.096;2023-11-19T11:02:34;99343.44;;;10.23
76901;BMP280;65859;43.020;25.096;2023-11-19T11:05:22;99349.69;;;9.93
76901;BMP280;65859;43.020;25.096;2023-11-19T11:08:07;99427.66;;;18.25
76901;BMP280;65859;43.020;25.096;2023-11-19T11:10:56;99418.53;;;21.33
76901;BMP280;65859;43.020;25.096;2023-11-19T11:13:43;99422.88;;;21.79
76901;BMP280;65859;43.020;25.096;2023-11-19T11:16:29;99424.56;;;22.82
76901;BMP280;65859;43.020;25.096;2023-11-19T11:19:17;99427.63;;;22.54
76901;BMP280;65859;43.020;25.096;2023-11-19T11:22:03;99416.22;;;21.35
76901;BMP280;65859;43.020;25.096;2023-11-19T11:37:53;99386.50;;;17.70
76901;BMP280;65859;43.020;25.096;2023-11-19T11:40:40;99364.00;;;13.38
76901;BMP280;65859;43.020;25.096;2023-11-19T11:49:25;99312.13;;;18.21
76901;BMP280;65859;43.020;25.096;2023-11-19T11:52:10;99412.41;;;16.42
76901;BMP280;65859;43.020;25.096;2023-11-19T11:55:06;99401.09;;;19.55
76901;BMP280;65859;43.020;25.096;2023-11-19T11:57:57;99395.34;;;23.01
76901;BMP280;65859;43.020;25.096;2023-11-19T12:00:42;99380.66;;;21.92
76901;BMP280;65859;43.020;25.096;2023-11-19T12:03:29;99298.78;;;13.64
76901;BMP280;65859;43.020;25.096;2023-11-19T12:06:15;99331.16;;;21.61
76901;BMP280;65859;43.020;25.096;2023-11-19T12:09:00;99294.56;;;14.22
76901;BMP280;65859;43.020;25.096;2023-11-19T12:11:48;99291.53;;;13.76
76901;BMP280;65859;43.020;25.096;2023-11-19T12:17:49;99301.81;;;15.92
76901;BMP280;65859;43.020;25.096;2023-11-19T12:20:35;99312.84;;;16.63
76901;BMP280;65859;43.020;25.096;2023-11-19T12:23:22;99300.91;;;14.49
76901;BMP280;65859;43.020;25.096;2023-11-19T12:26:07;99302.34;;;12.26
76901;BMP280;65859;43.020;25.096;2023-11-19T12:29:01;99292.19;;;12.77
76901;BMP280;65859;43.020;25.096;2023-11-19T12:31:54;99293.31;;;12.52
76901;BMP280;65859;43.020;25.096;2023-11-19T12:34:39;99273.28;;;12.94
76901;BMP280;65859;43.020;25.096;2023-11-19T12:37:24;99279.28;;;12.06
76901;BMP280;65859;43.020;25.096;2023-11-19T12:40:13;99272.13;;;12.43
76901;BMP280;65859;43.020;25.096;2023-11-19T12:42:58;99267.84;;;11.60
76901;BMP280;65859;43.020;25.096;2023-11-19T12:45:44;99255.88;;;11.87
76901;BMP280;65859;43.020;25.096;2023-11-19T12:48:29;99255.97;;;11.90
76901;BMP280;65859;43.020;25.096;2023-11-19T12:51:17;99240.63;;;11.96
76901;BMP280;65859;43.020;25.096;2023-11-19T12:54:01;99228.66;;;11.57
76901;BMP280;65859;43.020;25.096;2023-11-19T12:56:53;99218.25;;;11.64
76901;BMP280;65859;43.020;25.096;2023-11-19T12:59:38;99219.34;;;11.30
76901;BMP280;65859;43.020;25.096;2023-11-19T13:02:23;99200.66;;;11.05
76901;BMP280;65859;43.020;25.096;2023-11-19T13:05:32;99196.44;;;11.25
76901;BMP280;65859;43.020;25.096;2023-11-19T13:08:17;99194.59;;;11.05
76901;BMP280;65859;43.020;25.096;2023-11-19T13:11:02;99194.72;;;10.88
76901;BMP280;65859;43.020;25.096;2023-11-19T13:16:39;99201.44;;;10.64
76901;BMP280;65859;43.020;25.096;2023-11-19T13:19:23;99199.53;;;10.35
76901;BMP280;65859;43.020;25.096;2023-11-19T13:22:10;99192.72;;;10.55
76901;BMP280;65859;43.020;25.096;2023-11-19T13:24:55;99189.91;;;10.60
76901;BMP280;65859;43.020;25.096;2023-11-19T13:27:39;99184.25;;;10.62
76901;BMP280;65859;43.020;25.096;2023-11-19T13:30:25;99191.09;;;10.33
76901;BMP280;65859;43.020;25.096;2023-11-19T13:33:10;99187.88;;;10.27
76901;BMP280;65859;43.020;25.096;2023-11-19T13:35:57;99164.06;;;10.19
76901;BMP280;65859;43.020;25.096;2023-11-19T13:38:42;99185.94;;;10.37
76901;BMP280;65859;43.020;25.096;2023-11-19T13:41:28;99184.69;;;10.13
76901;BMP280;65859;43.020;25.096;2023-11-19T13:44:13;99175.31;;;10.07
76901;BMP280;65859;43.020;25.096;2023-11-19T13:46:58;99178.28;;;10.14
76901;BMP280;65859;43.020;25.096;2023-11-19T13:49:44;99178.13;;;10.11
76901;BMP280;65859;43.020;25.096;2023-11-19T13:52:30;99178.13;;;10.11
76901;BMP280;65859;43.020;25.096;2023-11-19T13:55:15;99178.91;;;10.11
76901;BMP280;65859;43.020;25.096;2023-11-19T13:58:00;99177.91;;;10.24
76901;BMP280;65859;43.020;25.096;2023-11-19T14:00:45;99186.59;;;10.04
76901;BMP280;65859;43.020;25.096;2023-11-19T14:03:29;99198.88;;;10.00
76901;BMP280;65859;43.020;25.096;2023-11-19T14:06:14;99203.78;;;9.89
76901;BMP280;65859;43.020;25.096;2023-11-19T14:08:59;99198.47;;;9.89
76901;BMP280;65859;43.020;25.096;2023-11-19T14:11:44;99207.56;;;9.80
76901;BMP280;65859;43.020;25.096;2023-11-19T14:14:28;99224.06;;;9.77
76901;BMP280;65859;43.020;25.096;2023-11-19T14:17:13;99235.16;;;9.61
76901;BMP280;65859;43.020;25.096;2023-11-19T14:20:02;99224.56;;;9.61
76901;BMP280;65859;43.020;25.096;2023-11-19T14:22:58;99230.16;;;9.68
76901;BMP280;65859;43.020;25.096;2023-11-19T14:25:43;99246.22;;;9.55
76901;BMP280;65859;43.020;25.096;2023-11-19T14:28:28;99244.53;;;9.50
76901;BMP280;65859;43.020;25.096;2023-11-19T14:31:13;99247.28;;;9.45
76901;BMP280;65859;43.020;25.096;2023-11-19T14:33:58;99244.81;;;9.40
76901;BMP280;65859;43.020;25.096;2023-11-19T14:36:42;99227.84;;;9.24
76901;BMP280;65859;43.020;25.096;2023-11-19T14:39:27;99242.31;;;9.26
76901;BMP280;65859;43.020;25.096;2023-11-19T14:42:14;99235.81;;;9.24
76901;BMP280;65859;43.020;25.096;2023-11-19T14:44:58;99236.69;;;9.19
76901;BMP280;65859;43.020;25.096;2023-11-19T14:47:43;99249.34;;;9.05
76901;BMP280;65859;43.020;25.096;2023-11-19T14:50:28;99236.38;;;9.03
76901;BMP280;65859;43.020;25.096;2023-11-19T14:53:14;99256.59;;;8.99
76901;BMP280;65859;43.020;25.096;2023-11-19T14:56:00;99243.97;;;8.87
76901;BMP280;65859;43.020;25.096;2023-11-19T14:58:45;99243.97;;;8.87
76901;BMP280;65859;43.020;25.096;2023-11-19T15:01:30;99241.00;;;8.80
76901;BMP280;65859;43.020;25.096;2023-11-19T15:04:15;99237.09;;;8.69
76901;BMP280;65859;43.020;25.096;2023-11-19T15:07:00;99232.06;;;8.68
76901;BMP280;65859;43.020;25.096;2023-11-19T15:09:45;99231.63;;;8.66
76901;BMP280;65859;43.020;25.096;2023-11-19T15:12:30;99235.38;;;8.64
76901;BMP280;65859;43.020;25.096;2023-11-19T15:15:14;99224.91;;;8.59
76901;BMP280;65859;43.020;25.096;2023-11-19T15:18:02;99234.81;;;8.45
76901;BMP280;65859;43.020;25.096;2023-11-19T15:20:47;99247.78;;;8.55
76901;BMP280;65859;43.020;25.096;2023-11-19T15:23:33;99249.44;;;8.43
76901;BMP280;65859;43.020;25.096;2023-11-19T15:26:17;99246.97;;;8.46
76901;BMP280;65859;43.020;25.096;2023-11-19T15:29:03;99247.28;;;8.45
76901;BMP280;65859;43.020;25.096;2023-11-19T15:31:47;99242.06;;;8.31
76901;BMP280;65859;43.020;25.096;2023-11-19T15:34:32;99249.44;;;8.11
76901;BMP280;65859;43.020;25.096;2023-11-19T15:37:18;99249.00;;;8.18
76901;BMP280;65859;43.020;25.096;2023-11-19T15:40:03;99252.28;;;8.24
76901;BMP280;65859;43.020;25.096;2023-11-19T15:42:50;99256.25;;;8.35
76901;BMP280;65859;43.020;25.096;2023-11-19T15:45:34;99269.66;;;7.94
76901;BMP280;65859;43.020;25.096;2023-11-19T15:48:24;99257.34;;;8.11
76901;BMP280;65859;43.020;25.096;2023-11-19T15:51:10;99268.16;;;7.79
76901;BMP280;65859;43.020;25.096;2023-11-19T15:53:56;99283.78;;;7.89
76901;BMP280;65859;43.020;25.096;2023-11-19T15:56:41;99284.88;;;7.88
76901;BMP280;65859;43.020;25.096;2023-11-19T15:59:26;99277.28;;;7.95
76901;BMP280;65859;43.020;25.096;2023-11-19T16:02:11;99276.44;;;7.50
76901;BMP280;65859;43.020;25.096;2023-11-19T16:04:56;99271.44;;;7.26
76901;BMP280;65859;43.020;25.096;2023-11-19T16:07:41;99267.34;;;7.20
76901;BMP280;65859;43.020;25.096;2023-11-19T16:10:25;99273.41;;;7.20
76901;BMP280;65859;43.020;25.096;2023-11-19T16:13:10;99259.28;;;7.39
76901;BMP280;65859;43.020;25.096;2023-11-19T16:15:55;99266.06;;;7.67
76901;BMP280;65859;43.020;25.096;2023-11-19T16:18:40;99256.81;;;7.78